TimeEST,TemperatureF,Dew PointF,Humidity,Sea Level PressureIn,VisibilityMPH,Wind Direction,Wind SpeedMPH,Gust SpeedMPH,PrecipitationIn,Events,Conditions,WindDirDegrees,DateUTC
12:00 AM,53.6,50.0,88,30.25,7.0,Calm,Calm,-,N/A,,Mostly Cloudy,0,2012-12-03 05:00:00
12:44 AM,53.6,50.0,88,30.24,1.5,Calm,Calm,-,N/A,,Mostly Cloudy,0,2012-12-03 05:44:00
12:53 AM,52.0,50.0,93,30.28,2.0,Calm,Calm,-,N/A,,Mostly Cloudy,0,2012-12-03 05:53:00
1:00 AM,51.8,48.2,88,30.24,4.0,Calm,Calm,-,N/A,,Mostly Cloudy,0,2012-12-03 06:00:00
1:08 AM,51.8,48.2,88,30.24,1.5,Calm,Calm,-,N/A,,Mostly Cloudy,0,2012-12-03 06:08:00
1:17 AM,51.8,48.2,88,30.24,0.8,Calm,Calm,-,N/A,,Mist,0,2012-12-03 06:17:00
1:21 AM,51.8,48.2,88,30.24,2.5,Calm,Calm,-,N/A,,Overcast,0,2012-12-03 06:21:00
1:28 AM,51.8,50.0,94,30.24,4.0,Calm,Calm,-,N/A,,Overcast,0,2012-12-03 06:28:00
1:30 AM,51.8,50.0,94,30.24,1.8,Calm,Calm,-,N/A,,Overcast,0,2012-12-03 06:30:00
1:34 AM,51.8,50.0,94,30.24,0.8,Calm,Calm,-,N/A,,Mist,0,2012-12-03 06:34:00
1:38 AM,51.8,50.0,94,30.24,1.0,Calm,Calm,-,N/A,,Mist,0,2012-12-03 06:38:00
1:43 AM,51.8,50.0,94,30.24,3.0,Calm,Calm,-,N/A,,Overcast,0,2012-12-03 06:43:00
1:53 AM,52.0,50.0,93,30.27,4.0,Calm,Calm,-,N/A,,Overcast,0,2012-12-03 06:53:00
1:56 AM,51.8,50.0,94,30.24,1.8,Calm,Calm,-,N/A,,Overcast,0,2012-12-03 06:56:00
2:01 AM,51.8,50.0,94,30.24,0.8,Calm,Calm,-,N/A,,Mist,0,2012-12-03 07:01:00
2:12 AM,51.8,48.2,88,30.24,2.0,Calm,Calm,-,N/A,,Overcast,0,2012-12-03 07:12:00
2:19 AM,51.8,48.2,88,30.23,9.0,Calm,Calm,-,N/A,,Overcast,0,2012-12-03 07:19:00
2:35 AM,51.8,48.2,88,30.24,1.8,Calm,Calm,-,N/A,,Overcast,0,2012-12-03 07:35:00
2:53 AM,50.0,48.9,96,30.27,0.8,Calm,Calm,-,N/A,,Mist,0,2012-12-03 07:53:00
3:31 AM,51.8,51.8,100,30.24,2.0,NNE,3.5,-,N/A,,Mostly Cloudy,20,2012-12-03 08:31:00
3:51 AM,51.8,50.0,94,30.23,7.0,Calm,Calm,-,N/A,,Partly Cloudy,0,2012-12-03 08:51:00
3:53 AM,51.1,50.0,96,30.27,8.0,North,3.5,-,N/A,,Partly Cloudy,360,2012-12-03 08:53:00
4:05 AM,51.8,48.2,88,30.23,7.0,North,3.5,-,N/A,,Partly Cloudy,360,2012-12-03 09:05:00
4:53 AM,52.0,51.1,97,30.27,5.0,NNE,3.5,-,N/A,,Clear,30,2012-12-03 09:53:00
5:00 AM,53.6,51.8,94,30.23,1.8,NE,3.5,-,N/A,,Clear,40,2012-12-03 10:00:00
5:15 AM,53.6,51.8,94,30.24,2.0,ENE,5.8,-,N/A,,Partly Cloudy,70,2012-12-03 10:15:00
5:23 AM,55.4,53.6,94,30.25,7.0,NE,4.6,-,N/A,,Clear,50,2012-12-03 10:23:00
5:53 AM,55.0,55.0,100,30.28,7.0,Calm,Calm,-,N/A,,Clear,0,2012-12-03 10:53:00
6:53 AM,54.0,52.0,93,30.29,8.0,NNE,6.9,-,N/A,,Clear,30,2012-12-03 11:53:00
7:53 AM,55.9,54.0,93,30.31,10.0,NNE,5.8,-,N/A,,Clear,20,2012-12-03 12:53:00
8:53 AM,60.1,55.9,86,30.32,10.0,NE,4.6,-,N/A,,Partly Cloudy,40,2012-12-03 13:53:00
9:53 AM,64.4,60.8,88,30.29,10.0,East,5.8,-,N/A,,Mostly Cloudy,80,2012-12-03 14:53:00
10:53 AM,69.1,62.1,78,30.33,10.0,Variable,4.6,-,N/A,,Overcast,0,2012-12-03 15:53:00
11:53 AM,73.0,62.1,68,30.31,10.0,Calm,Calm,-,N/A,,Overcast,0,2012-12-03 16:53:00
12:53 PM,75.9,60.1,58,30.28,5.0,ESE,5.8,-,N/A,,Haze,110,2012-12-03 17:53:00
1:53 PM,77.0,52.0,42,30.25,10.0,SSE,8.1,-,N/A,,Scattered Clouds,160,2012-12-03 18:53:00
2:53 PM,77.0,51.1,40,30.25,10.0,South,6.9,-,N/A,,Scattered Clouds,170,2012-12-03 19:53:00
3:53 PM,77.0,52.0,42,30.24,10.0,South,4.6,-,N/A,,Scattered Clouds,180,2012-12-03 20:53:00
4:53 PM,73.9,57.0,55,30.24,10.0,South,6.9,-,N/A,,Partly Cloudy,180,2012-12-03 21:53:00
5:53 PM,66.9,60.1,79,30.25,10.0,East,3.5,-,N/A,,Clear,90,2012-12-03 22:53:00
6:53 PM,61.0,57.9,90,30.26,10.0,Calm,Calm,-,N/A,,Clear,0,2012-12-03 23:53:00
7:53 PM,59.0,55.9,90,30.27,10.0,Calm,Calm,-,N/A,,Clear,0,2012-12-04 00:53:00
8:53 PM,57.9,55.0,90,30.27,7.0,Calm,Calm,-,N/A,,Clear,0,2012-12-04 01:53:00
9:53 PM,57.9,55.9,93,30.27,7.0,Calm,Calm,-,N/A,,Clear,0,2012-12-04 02:53:00
10:53 PM,55.0,52.0,89,30.27,9.0,Calm,Calm,-,N/A,,Clear,0,2012-12-04 03:53:00
11:25 PM,53.6,51.8,94,30.24,9.0,Calm,Calm,-,N/A,,Scattered Clouds,0,2012-12-04 04:25:00
11:33 PM,53.6,51.8,94,30.24,4.0,Calm,Calm,-,N/A,,Mostly Cloudy,0,2012-12-04 04:33:00
11:36 PM,53.6,51.8,94,30.24,1.8,Calm,Calm,-,N/A,,Mostly Cloudy,0,2012-12-04 04:36:00
11:48 PM,53.6,51.8,94,30.24,3.0,Calm,Calm,-,N/A,,Overcast,0,2012-12-04 04:48:00
11:53 PM,53.1,51.1,93,30.27,10.0,Calm,Calm,-,N/A,,Overcast,0,2012-12-04 04:53:00